createdAt,value
2016-04-26T00:00:22.138Z,0
2016-04-26T00:01:05.094Z,0
2016-04-26T00:01:49.643Z,0
2016-04-26T00:02:32.645Z,0
2016-04-26T00:03:15.583Z,0
2016-04-26T00:03:58.523Z,0
2016-04-26T00:04:41.495Z,0
2016-04-26T00:05:24.452Z,0
2016-04-26T00:06:07.377Z,0
2016-04-26T00:06:50.317Z,0
2016-04-26T00:07:33.257Z,0
2016-04-26T00:08:16.210Z,0
2016-04-26T00:08:59.165Z,0
2016-04-26T00:09:42.137Z,0
2016-04-26T00:10:24.903Z,0
2016-04-26T00:11:07.859Z,0
2016-04-26T00:11:50.783Z,0
2016-04-26T00:12:33.723Z,0
2016-04-26T00:13:16.645Z,0
2016-04-26T00:13:59.601Z,0
2016-04-26T00:14:42.526Z,0
2016-04-26T00:15:25.479Z,0
2016-04-26T00:16:09.372Z,0
2016-04-26T00:16:52.281Z,0
2016-04-26T00:17:35.300Z,0
2016-04-26T00:18:18.237Z,0
2016-04-26T00:19:01.178Z,0
2016-04-26T00:19:44.102Z,0
2016-04-26T00:20:27.039Z,0
2016-04-26T00:21:09.980Z,0
2016-04-26T00:21:52.153Z,0
2016-04-26T00:22:35.110Z,0
2016-04-26T00:23:18.031Z,0
2016-04-26T00:24:00.972Z,0
2016-04-26T00:24:43.897Z,0
2016-04-26T00:25:26.866Z,0
2016-04-26T00:26:09.805Z,0
2016-04-26T00:26:52.761Z,0
2016-04-26T00:27:35.702Z,0
2016-04-26T00:28:18.639Z,0
2016-04-26T00:29:01.579Z,0
2016-04-26T00:29:44.535Z,0
2016-04-26T00:30:27.472Z,0
2016-04-26T00:31:10.491Z,0
2016-04-26T00:31:53.135Z,0
2016-04-26T00:32:36.871Z,0
2016-04-26T00:33:19.793Z,0
2016-04-26T00:34:02.749Z,0
2016-04-26T00:34:48.845Z,0
2016-04-26T00:35:31.832Z,0
2016-04-26T00:36:14.801Z,0
2016-04-26T00:36:57.757Z,0
2016-04-26T00:37:40.729Z,0
2016-04-26T00:38:23.666Z,0
2016-04-26T00:39:06.621Z,0
2016-04-26T00:39:49.593Z,0
2016-04-26T00:40:32.549Z,0
2016-04-26T00:41:15.518Z,0
2016-04-26T00:41:58.489Z,0
2016-04-26T00:42:41.445Z,0
2016-04-26T00:43:24.382Z,0
2016-04-26T00:44:07.369Z,0
2016-04-26T00:44:50.340Z,0
2016-04-26T00:45:33.328Z,0
2016-04-26T00:46:16.422Z,0
2016-04-26T00:46:58.642Z,0
2016-04-26T00:47:41.428Z,0
2016-04-26T00:48:24.412Z,0
2016-04-26T00:49:07.367Z,0
2016-04-26T00:49:50.307Z,0
2016-04-26T00:50:33.264Z,0
2016-04-26T00:51:16.217Z,0
2016-04-26T00:51:59.172Z,0
2016-04-26T00:52:42.128Z,0
2016-04-26T00:53:25.097Z,0
2016-04-26T00:54:08.037Z,0
2016-04-26T00:54:50.992Z,0
2016-04-26T00:55:33.964Z,0
2016-04-26T00:56:16.917Z,0
2016-04-26T00:56:59.888Z,0
2016-04-26T00:57:42.844Z,0
2016-04-26T00:58:25.813Z,0
2016-04-26T00:59:08.769Z,0
2016-04-26T00:59:51.710Z,0
2016-04-26T01:00:34.665Z,0
2016-04-26T01:01:18.321Z,0
2016-04-26T01:02:01.761Z,0
2016-04-26T01:02:44.951Z,0
2016-04-26T01:03:27.904Z,0
2016-04-26T01:04:10.846Z,0
2016-04-26T01:04:53.802Z,0
2016-04-26T01:05:36.772Z,0
2016-04-26T01:06:19.710Z,0
2016-04-26T01:07:02.682Z,0
2016-04-26T01:07:45.637Z,0
2016-04-26T01:08:28.590Z,0
2016-04-26T01:09:11.562Z,0
2016-04-26T01:09:54.548Z,0
2016-04-26T01:10:36.708Z,0
2016-04-26T01:11:19.693Z,0
2016-04-26T01:12:02.632Z,0
2016-04-26T01:12:45.587Z,0
2016-04-26T01:13:28.556Z,0
2016-04-26T01:14:11.513Z,0
2016-04-26T01:14:54.468Z,0
2016-04-26T01:15:37.409Z,0
2016-04-26T01:16:21.128Z,0
2016-04-26T01:17:05.396Z,0
2016-04-26T01:17:48.836Z,0
2016-04-26T01:18:31.789Z,0
2016-04-26T01:19:14.745Z,0
2016-04-26T01:19:57.701Z,0
2016-04-26T01:20:40.656Z,0
2016-04-26T01:21:23.625Z,0
2016-04-26T01:22:06.596Z,0
2016-04-26T01:22:49.568Z,0
2016-04-26T01:23:32.537Z,0
2016-04-26T01:24:15.477Z,0
2016-04-26T01:24:58.448Z,0
2016-04-26T01:25:41.420Z,0
2016-04-26T01:26:24.217Z,0
2016-04-26T01:27:07.172Z,0
2016-04-26T01:27:50.144Z,0
2016-04-26T01:28:33.081Z,0
2016-04-26T01:29:16.069Z,0
2016-04-26T01:29:59.025Z,0
2016-04-26T01:30:41.964Z,0
2016-04-26T01:31:25.183Z,0
2016-04-26T01:32:08.046Z,0
2016-04-26T01:32:51.001Z,0
2016-04-26T01:33:33.954Z,0
2016-04-26T01:34:16.941Z,0
2016-04-26T01:34:59.897Z,0
2016-04-26T01:35:42.838Z,0
2016-04-26T01:36:25.775Z,0
2016-04-26T01:37:08.762Z,0
2016-04-26T01:37:51.718Z,0
2016-04-26T01:38:34.702Z,0
2016-04-26T01:39:17.643Z,0
2016-04-26T01:40:00.708Z,0
2016-04-26T01:40:43.648Z,0
2016-04-26T01:41:26.616Z,0
2016-04-26T01:42:09.587Z,0
2016-04-26T01:42:52.544Z,0
2016-04-26T01:43:35.513Z,0
2016-04-26T01:44:18.453Z,0
2016-04-26T01:45:01.440Z,0
2016-04-26T01:45:44.364Z,0
2016-04-26T01:46:27.333Z,0
2016-04-26T01:47:10.290Z,0
2016-04-26T01:47:53.385Z,0
2016-04-26T01:48:36.341Z,0
2016-04-26T01:49:19.309Z,0
2016-04-26T01:50:02.265Z,0
2016-04-26T01:50:45.206Z,0
2016-04-26T01:51:28.159Z,0
2016-04-26T01:52:11.099Z,0
2016-04-26T01:52:54.071Z,0
2016-04-26T01:53:37.009Z,0
2016-04-26T01:54:19.995Z,0
2016-04-26T01:55:02.950Z,0
2016-04-26T01:55:45.907Z,0
2016-04-26T01:56:28.861Z,0
2016-04-26T01:57:11.831Z,0
2016-04-26T01:57:54.771Z,0
2016-04-26T01:58:37.728Z,0
2016-04-26T01:59:20.697Z,0
2016-04-26T02:00:03.652Z,0
2016-04-26T02:00:46.592Z,0
2016-04-26T02:01:29.999Z,0
2016-04-26T02:02:14.611Z,0
2016-04-26T02:02:57.300Z,0
2016-04-26T02:03:40.241Z,0
2016-04-26T02:04:23.210Z,0
2016-04-26T02:05:06.150Z,0
2016-04-26T02:05:49.137Z,0
2016-04-26T02:06:32.090Z,0
2016-04-26T02:07:15.062Z,0
2016-04-26T02:07:58.018Z,0
2016-04-26T02:08:40.988Z,0
2016-04-26T02:09:23.941Z,0
2016-04-26T02:10:06.899Z,0
2016-04-26T02:10:49.869Z,0
2016-04-26T02:11:32.838Z,0
2016-04-26T02:12:15.809Z,0
2016-04-26T02:12:58.749Z,0
2016-04-26T02:13:41.721Z,0
2016-04-26T02:14:24.690Z,0
2016-04-26T02:15:07.692Z,0
2016-04-26T02:15:50.664Z,0
2016-04-26T02:16:33.476Z,0
2016-04-26T02:17:17.588Z,0
2016-04-26T02:18:00.248Z,0
2016-04-26T02:18:43.187Z,0
2016-04-26T02:19:26.156Z,0
2016-04-26T02:20:08.956Z,0
2016-04-26T02:20:51.896Z,0
2016-04-26T02:21:34.912Z,0
2016-04-26T02:22:17.883Z,0
2016-04-26T02:23:00.908Z,0
2016-04-26T02:23:43.739Z,0
2016-04-26T02:24:26.692Z,0
2016-04-26T02:25:09.649Z,0
2016-04-26T02:25:52.635Z,0
2016-04-26T02:26:35.635Z,0
2016-04-26T02:27:18.591Z,0
2016-04-26T02:28:01.594Z,0
2016-04-26T02:28:44.534Z,0
2016-04-26T02:29:27.502Z,0
2016-04-26T02:30:10.458Z,0
2016-04-26T02:30:53.445Z,0
2016-04-26T02:31:36.445Z,0
2016-04-26T02:32:19.152Z,0
2016-04-26T02:33:02.763Z,0
2016-04-26T02:33:45.718Z,0
2016-04-26T02:34:28.687Z,0
2016-04-26T02:35:11.643Z,0
2016-04-26T02:35:54.615Z,0
2016-04-26T02:36:37.412Z,0
2016-04-26T02:37:20.368Z,0
2016-04-26T02:38:03.354Z,0
2016-04-26T02:38:46.296Z,0
2016-04-26T02:39:29.265Z,0
2016-04-26T02:40:12.220Z,0
2016-04-26T02:40:55.192Z,0
2016-04-26T02:41:38.129Z,0
2016-04-26T02:42:21.100Z,0
2016-04-26T02:43:04.071Z,0
2016-04-26T02:43:47.028Z,0
2016-04-26T02:44:30.012Z,0
2016-04-26T02:45:12.968Z,0
2016-04-26T02:45:55.939Z,0
2016-04-26T02:46:38.626Z,0
2016-04-26T02:47:21.457Z,0
2016-04-26T02:48:04.304Z,0
2016-04-26T02:48:47.275Z,0
2016-04-26T02:49:30.244Z,0
2016-04-26T02:50:13.199Z,0
2016-04-26T02:50:56.155Z,0
2016-04-26T02:51:38.952Z,0
2016-04-26T02:52:21.909Z,0
2016-04-26T02:53:04.864Z,0
2016-04-26T02:53:47.835Z,0
2016-04-26T02:54:30.804Z,0
2016-04-26T02:55:13.776Z,0
2016-04-26T02:55:56.715Z,0
2016-04-26T02:56:39.684Z,0
2016-04-26T02:57:22.656Z,0
2016-04-26T02:58:05.596Z,0
2016-04-26T02:58:48.536Z,0
2016-04-26T02:59:31.505Z,0
2016-04-26T03:00:14.446Z,0
2016-04-26T03:00:57.417Z,0
2016-04-26T03:01:40.777Z,0
2016-04-26T03:02:23.669Z,0
2016-04-26T03:03:06.609Z,0
2016-04-26T03:03:49.566Z,0
2016-04-26T03:04:32.519Z,0
2016-04-26T03:05:15.506Z,0
2016-04-26T03:05:58.462Z,0
2016-04-26T03:06:41.417Z,0
2016-04-26T03:07:24.370Z,0
2016-04-26T03:08:07.342Z,0
2016-04-26T03:08:50.298Z,0
2016-04-26T03:09:33.282Z,0
2016-04-26T03:10:16.253Z,0
2016-04-26T03:10:59.193Z,0
2016-04-26T03:11:42.165Z,0
2016-04-26T03:12:25.087Z,0
2016-04-26T03:13:08.059Z,0
2016-04-26T03:13:51.030Z,0
2016-04-26T03:14:33.967Z,0
2016-04-26T03:15:16.923Z,0
2016-04-26T03:15:59.878Z,0
2016-04-26T03:16:42.851Z,0
2016-04-26T03:17:25.540Z,0
2016-04-26T03:18:08.463Z,0
2016-04-26T03:18:51.420Z,0
2016-04-26T03:19:34.357Z,0
2016-04-26T03:20:17.328Z,0
2016-04-26T03:21:00.300Z,0
2016-04-26T03:21:43.256Z,0
2016-04-26T03:22:26.209Z,0
2016-04-26T03:23:09.164Z,0
2016-04-26T03:23:52.120Z,0
2016-04-26T03:24:35.089Z,0
2016-04-26T03:25:18.061Z,0
2016-04-26T03:26:01.048Z,0
2016-04-26T03:26:44.019Z,0
2016-04-26T03:27:26.987Z,0
2016-04-26T03:28:09.928Z,0
2016-04-26T03:28:52.884Z,0
2016-04-26T03:29:35.837Z,0
2016-04-26T03:30:18.792Z,0
2016-04-26T03:31:01.780Z,0
2016-04-26T03:31:46.470Z,0
2016-04-26T03:32:29.345Z,0
2016-04-26T03:33:12.316Z,0
2016-04-26T03:33:55.272Z,0
2016-04-26T03:34:38.225Z,0
2016-04-26T03:35:21.181Z,0
2016-04-26T03:36:04.152Z,4
2016-04-26T03:36:47.108Z,4
2016-04-26T03:37:30.093Z,4
2016-04-26T03:38:13.064Z,4
2016-04-26T03:38:56.036Z,0
2016-04-26T03:39:38.989Z,0
2016-04-26T03:40:21.960Z,4
2016-04-26T03:41:04.932Z,4
2016-04-26T03:41:47.888Z,4
2016-04-26T03:42:30.857Z,4
2016-04-26T03:43:13.812Z,4
2016-04-26T03:43:56.768Z,8
2016-04-26T03:44:39.721Z,4
2016-04-26T03:45:22.676Z,8
2016-04-26T03:46:05.649Z,8
2016-04-26T03:46:48.416Z,8
2016-04-26T03:47:31.854Z,8
2016-04-26T03:48:14.700Z,8
2016-04-26T03:48:57.641Z,16
2016-04-26T03:49:40.626Z,16
2016-04-26T03:50:23.565Z,16
2016-04-26T03:51:06.568Z,20
2016-04-26T03:51:49.540Z,16
2016-04-26T03:52:32.509Z,20
2016-04-26T03:53:15.511Z,24
2016-04-26T03:53:58.451Z,28
2016-04-26T03:54:41.404Z,28
2016-04-26T03:55:24.375Z,32
2016-04-26T03:56:07.315Z,36
2016-04-26T03:56:50.272Z,40
2016-04-26T03:57:33.240Z,44
2016-04-26T03:58:16.211Z,48
2016-04-26T03:58:59.168Z,56
2016-04-26T03:59:42.153Z,60
2016-04-26T04:00:25.108Z,64
2016-04-26T04:01:08.063Z,68
2016-04-26T04:01:53.301Z,76
2016-04-26T04:02:36.629Z,84
2016-04-26T04:03:19.350Z,92
2016-04-26T04:04:02.290Z,100
2016-04-26T04:04:45.262Z,108
2016-04-26T04:05:28.215Z,120
2016-04-26T04:06:11.186Z,128
2016-04-26T04:06:54.142Z,136
2016-04-26T04:07:37.111Z,148
2016-04-26T04:08:20.098Z,160
2016-04-26T04:09:03.054Z,172
2016-04-26T04:09:46.035Z,184
2016-04-26T04:10:29.004Z,196
2016-04-26T04:11:11.944Z,212
2016-04-26T04:11:54.915Z,224
2016-04-26T04:12:37.868Z,240
2016-04-26T04:13:20.840Z,256
2016-04-26T04:14:03.796Z,268
2016-04-26T04:14:46.751Z,284
2016-04-26T04:15:29.736Z,304
2016-04-26T04:16:12.692Z,320
2016-04-26T04:16:57.429Z,340
2016-04-26T04:17:40.273Z,360
2016-04-26T04:18:23.306Z,380
2016-04-26T04:19:06.262Z,400
2016-04-26T04:19:49.218Z,420
2016-04-26T04:20:32.187Z,444
2016-04-26T04:21:15.173Z,468
2016-04-26T04:21:58.114Z,492
2016-04-26T04:22:41.098Z,516
2016-04-26T04:23:24.039Z,536
2016-04-26T04:24:06.995Z,564
2016-04-26T04:24:49.966Z,592
2016-04-26T04:25:32.934Z,616
2016-04-26T04:26:15.891Z,640
2016-04-26T04:26:58.862Z,672
2016-04-26T04:27:41.815Z,700
2016-04-26T04:28:24.786Z,732
2016-04-26T04:29:07.586Z,760
2016-04-26T04:29:50.557Z,788
2016-04-26T04:30:33.494Z,824
2016-04-26T04:31:16.483Z,860
2016-04-26T04:32:00.283Z,900
2016-04-26T04:32:43.033Z,944
2016-04-26T04:33:25.691Z,980
2016-04-26T04:34:08.678Z,1016
2016-04-26T04:34:51.618Z,1056
2016-04-26T04:35:34.586Z,1088
2016-04-26T04:36:17.558Z,1120
2016-04-26T04:37:00.529Z,1148
2016-04-26T04:37:43.498Z,1164
2016-04-26T04:38:26.469Z,1168
2016-04-26T04:39:09.410Z,1180
2016-04-26T04:39:52.507Z,1188
2016-04-26T04:40:35.460Z,1196
2016-04-26T04:41:18.415Z,1216
2016-04-26T04:42:01.402Z,1232
2016-04-26T04:42:44.371Z,1256
2016-04-26T04:43:27.327Z,1284
2016-04-26T04:44:10.282Z,1312
2016-04-26T04:44:53.270Z,1336
2016-04-26T04:45:36.223Z,1372
2016-04-26T04:46:19.195Z,1416
2016-04-26T04:47:02.103Z,1464
2016-04-26T04:47:44.868Z,1492
2016-04-26T04:48:27.684Z,1540
2016-04-26T04:49:10.656Z,1572
2016-04-26T04:49:53.626Z,1608
2016-04-26T04:50:36.595Z,1640
2016-04-26T04:51:19.567Z,1664
2016-04-26T04:52:02.523Z,1692
2016-04-26T04:52:45.478Z,1728
2016-04-26T04:53:28.447Z,1768
2016-04-26T04:54:11.403Z,1816
2016-04-26T04:54:54.375Z,1876
2016-04-26T04:55:37.328Z,1952
2016-04-26T04:56:20.299Z,2040
2016-04-26T04:57:03.270Z,2136
2016-04-26T04:57:46.242Z,2244
2016-04-26T04:58:29.195Z,2356
2016-04-26T04:59:12.167Z,2472
2016-04-26T04:59:55.107Z,2584
2016-04-26T05:00:38.075Z,2692
2016-04-26T05:01:21.047Z,2784
2016-04-26T05:02:04.800Z,2856
2016-04-26T05:02:48.161Z,2920
2016-04-26T05:03:31.161Z,2964
2016-04-26T05:04:14.149Z,2988
2016-04-26T05:04:57.105Z,3008
2016-04-26T05:05:40.074Z,2992
2016-04-26T05:06:23.044Z,3004
2016-04-26T05:07:05.986Z,3048
2016-04-26T05:07:48.940Z,3100
2016-04-26T05:08:31.909Z,3164
2016-04-26T05:09:14.882Z,3196
2016-04-26T05:09:57.838Z,3276
2016-04-26T05:10:40.838Z,3296
2016-04-26T05:11:23.777Z,3296
2016-04-26T05:12:06.749Z,3260
2016-04-26T05:12:49.704Z,3192
2016-04-26T05:13:32.673Z,3104
2016-04-26T05:14:15.629Z,2984
2016-04-26T05:14:58.585Z,2852
2016-04-26T05:15:41.554Z,2720
2016-04-26T05:16:24.509Z,2576
2016-04-26T05:17:07.449Z,2368
2016-04-26T05:17:51.170Z,2232
2016-04-26T05:18:35.608Z,2136
2016-04-26T05:19:18.596Z,2068
2016-04-26T05:20:01.583Z,2048
2016-04-26T05:20:44.568Z,2044
2016-04-26T05:21:27.523Z,2044
2016-04-26T05:22:10.510Z,2020
2016-04-26T05:22:53.465Z,2052
2016-04-26T05:23:36.294Z,2072
2016-04-26T05:24:19.265Z,2112
2016-04-26T05:25:02.221Z,2152
2016-04-26T05:25:45.159Z,2192
2016-04-26T05:26:28.130Z,2264
2016-04-26T05:27:11.117Z,2356
2016-04-26T05:27:54.089Z,2436
2016-04-26T05:28:37.026Z,2528
2016-04-26T05:29:19.998Z,2656
2016-04-26T05:30:02.938Z,2796
2016-04-26T05:30:45.906Z,2920
2016-04-26T05:31:28.800Z,3076
2016-04-26T05:32:13.975Z,3184
2016-04-26T05:32:56.946Z,3324
2016-04-26T05:33:39.836Z,3480
2016-04-26T05:34:22.777Z,3628
2016-04-26T05:35:05.748Z,3804
2016-04-26T05:35:48.688Z,3928
2016-04-26T05:36:31.657Z,3964
2016-04-26T05:37:14.628Z,4096
2016-04-26T05:37:57.599Z,4064
2016-04-26T05:38:40.552Z,4116
2016-04-26T05:39:23.524Z,4272
2016-04-26T05:40:06.496Z,4436
2016-04-26T05:40:49.467Z,4588
2016-04-26T05:41:32.451Z,4628
2016-04-26T05:42:15.423Z,4532
2016-04-26T05:42:58.223Z,4404
2016-04-26T05:43:41.223Z,4100
2016-04-26T05:44:24.210Z,3648
2016-04-26T05:45:07.165Z,3504
2016-04-26T05:45:50.090Z,3468
2016-04-26T05:46:33.059Z,3368
2016-04-26T05:47:17.061Z,3292
2016-04-26T05:48:00.720Z,3176
2016-04-26T05:48:44.095Z,3188
2016-04-26T05:49:27.129Z,3144
2016-04-26T05:50:09.882Z,3160
2016-04-26T05:50:52.729Z,3180
2016-04-26T05:51:35.713Z,3280
2016-04-26T05:52:18.668Z,3304
2016-04-26T05:53:01.656Z,3472
2016-04-26T05:53:44.609Z,3576
2016-04-26T05:54:27.581Z,3580
2016-04-26T05:55:10.426Z,3636
2016-04-26T05:55:53.523Z,3552
2016-04-26T05:56:36.492Z,3472
2016-04-26T05:57:19.733Z,3400
2016-04-26T05:58:03.756Z,3276
2016-04-26T05:58:47.084Z,3304
2016-04-26T05:59:30.665Z,3368
2016-04-26T06:00:13.605Z,3668
2016-04-26T06:00:56.732Z,3768
2016-04-26T06:01:41.133Z,3956
2016-04-26T06:02:23.808Z,4256
2016-04-26T06:03:07.638Z,4484
2016-04-26T06:03:49.907Z,5056
2016-04-26T06:04:32.875Z,5700
2016-04-26T06:05:15.942Z,6456
2016-04-26T06:05:58.959Z,7040
2016-04-26T06:06:41.897Z,7804
2016-04-26T06:07:24.869Z,9036
2016-04-26T06:08:07.855Z,9208
2016-04-26T06:08:50.827Z,8580
2016-04-26T06:09:33.796Z,7192
2016-04-26T06:10:16.766Z,6240
2016-04-26T06:10:59.722Z,5676
2016-04-26T06:11:42.676Z,5488
2016-04-26T06:12:25.632Z,5628
2016-04-26T06:13:08.540Z,5980
2016-04-26T06:13:51.387Z,5952
2016-04-26T06:14:34.355Z,5636
2016-04-26T06:15:17.312Z,5360
2016-04-26T06:16:00.268Z,5560
2016-04-26T06:16:43.236Z,5764
2016-04-26T06:17:27.005Z,5048
2016-04-26T06:18:09.679Z,4232
2016-04-26T06:18:53.229Z,3696
2016-04-26T06:19:36.213Z,2864
2016-04-26T06:20:19.200Z,2312
2016-04-26T06:21:02.171Z,2244
2016-04-26T06:21:45.140Z,2116
2016-04-26T06:22:27.302Z,1892
2016-04-26T06:23:10.274Z,1868
2016-04-26T06:23:53.246Z,1712
2016-04-26T06:24:36.214Z,1632
2016-04-26T06:25:19.216Z,1564
2016-04-26T06:26:02.188Z,1764
2016-04-26T06:26:45.157Z,1964
2016-04-26T06:27:28.112Z,2280
2016-04-26T06:28:11.068Z,2596
2016-04-26T06:28:58.618Z,2440
2016-04-26T06:29:41.431Z,2424
2016-04-26T06:30:24.387Z,2320
2016-04-26T06:31:07.358Z,2144
2016-04-26T06:31:50.314Z,2444
2016-04-26T06:32:34.267Z,2664
2016-04-26T06:33:17.520Z,2672
2016-04-26T06:34:00.381Z,2648
2016-04-26T06:34:43.709Z,2672
2016-04-26T06:35:26.712Z,3176
2016-04-26T06:36:09.668Z,3400
2016-04-26T06:36:52.639Z,3848
2016-04-26T06:37:34.780Z,4288
2016-04-26T06:38:16.970Z,4336
2016-04-26T06:38:59.925Z,3436
2016-04-26T06:39:42.878Z,2924
2016-04-26T06:40:25.867Z,3004
2016-04-26T06:41:08.838Z,3328
2016-04-26T06:41:51.777Z,3996
2016-04-26T06:42:34.761Z,4688
2016-04-26T06:43:17.719Z,5100
2016-04-26T06:44:00.674Z,4668
2016-04-26T06:44:43.642Z,6104
2016-04-26T06:45:26.614Z,7448
2016-04-26T06:46:09.602Z,9080
2016-04-26T06:46:52.572Z,9876
2016-04-26T06:47:34.932Z,9928
2016-04-26T06:48:19.966Z,10344
2016-04-26T06:49:02.968Z,9992
2016-04-26T06:49:45.937Z,9656
2016-04-26T06:50:28.908Z,8468
2016-04-26T06:51:11.865Z,6704
2016-04-26T06:51:54.835Z,4896
2016-04-26T06:52:37.788Z,3672
2016-04-26T06:53:20.776Z,2708
2016-04-26T06:54:03.748Z,2316
2016-04-26T06:54:46.716Z,2648
2016-04-26T06:55:29.688Z,2776
2016-04-26T06:56:12.768Z,2928
2016-04-26T06:56:55.802Z,2880
2016-04-26T06:57:38.787Z,3044
2016-04-26T06:58:21.758Z,3152
2016-04-26T06:59:04.729Z,2972
2016-04-26T06:59:47.698Z,3184
2016-04-26T07:00:30.670Z,3040
2016-04-26T07:01:13.625Z,2516
2016-04-26T07:01:56.612Z,2108
2016-04-26T07:02:42.815Z,1972
2016-04-26T07:03:27.287Z,1996
2016-04-26T07:04:10.243Z,1580
2016-04-26T07:04:53.215Z,1104
2016-04-26T07:05:36.168Z,808
2016-04-26T07:06:19.156Z,680
2016-04-26T07:07:02.111Z,796
2016-04-26T07:07:45.095Z,876
2016-04-26T07:08:28.051Z,1136
2016-04-26T07:09:10.992Z,1360
2016-04-26T07:09:53.962Z,1692
2016-04-26T07:10:36.962Z,1556
2016-04-26T07:11:19.934Z,1480
2016-04-26T07:12:02.733Z,1608
2016-04-26T07:12:45.733Z,1792
2016-04-26T07:13:28.783Z,1936
2016-04-26T07:14:11.802Z,2168
2016-04-26T07:14:54.805Z,2476
2016-04-26T07:15:38.367Z,2620
2016-04-26T07:16:21.588Z,2956
2016-04-26T07:17:04.544Z,3824
2016-04-26T07:17:47.106Z,4704
2016-04-26T07:18:30.063Z,6636
2016-04-26T07:19:13.034Z,7260
2016-04-26T07:19:55.989Z,6096
2016-04-26T07:20:38.943Z,5824
2016-04-26T07:21:21.899Z,5760
2016-04-26T07:22:04.901Z,5112
2016-04-26T07:22:47.577Z,5104
2016-04-26T07:23:30.580Z,5168
2016-04-26T07:24:13.567Z,5412
2016-04-26T07:24:56.507Z,5068
2016-04-26T07:25:39.523Z,5444
2016-04-26T07:26:22.588Z,5236
2016-04-26T07:27:05.607Z,4932
2016-04-26T07:27:48.576Z,4084
2016-04-26T07:28:31.532Z,3540
2016-04-26T07:29:14.471Z,3340
2016-04-26T07:29:57.428Z,2872
2016-04-26T07:30:40.396Z,2528
2016-04-26T07:31:23.461Z,1884
2016-04-26T07:32:06.401Z,1836
2016-04-26T07:32:50.401Z,1692
2016-04-26T07:33:33.779Z,1696
2016-04-26T07:34:19.219Z,2148
2016-04-26T07:35:02.176Z,1972
2016-04-26T07:35:45.129Z,1944
2016-04-26T07:36:28.068Z,1844
2016-04-26T07:37:11.039Z,1792
2016-04-26T07:37:53.996Z,2156
2016-04-26T07:38:36.965Z,2592
2016-04-26T07:39:19.936Z,2652
2016-04-26T07:40:02.751Z,2528
2016-04-26T07:40:45.705Z,2396
2016-04-26T07:41:28.660Z,2876
2016-04-26T07:42:11.631Z,3748
2016-04-26T07:42:54.572Z,4724
2016-04-26T07:43:37.525Z,4720
2016-04-26T07:44:20.480Z,4208
2016-04-26T07:45:03.436Z,4444
2016-04-26T07:45:46.421Z,5116
2016-04-26T07:46:29.376Z,4716
2016-04-26T07:47:12.364Z,4224
2016-04-26T07:47:56.601Z,4136
2016-04-26T07:48:41.476Z,3732
2016-04-26T07:49:24.291Z,4132
2016-04-26T07:50:07.263Z,5964
2016-04-26T07:50:50.247Z,5020
2016-04-26T07:51:33.187Z,5544
2016-04-26T07:52:16.190Z,6160
2016-04-26T07:52:59.146Z,5552
2016-04-26T07:53:42.115Z,4992
2016-04-26T07:54:25.070Z,5156
2016-04-26T07:55:08.041Z,5232
2016-04-26T07:55:51.010Z,5080
2016-04-26T07:56:33.997Z,4468
2016-04-26T07:57:16.969Z,4988
2016-04-26T07:57:59.925Z,4756
2016-04-26T07:58:42.863Z,3620
2016-04-26T07:59:25.818Z,2932
2016-04-26T08:00:08.774Z,2856
2016-04-26T08:00:51.727Z,3860
2016-04-26T08:01:34.714Z,3360
2016-04-26T08:02:17.669Z,3452
2016-04-26T08:03:00.642Z,3160
2016-04-26T08:03:43.720Z,3176
2016-04-26T08:04:26.675Z,3352
2016-04-26T08:05:09.615Z,3536
2016-04-26T08:05:52.586Z,3404
2016-04-26T08:06:35.539Z,3108
2016-04-26T08:07:18.511Z,3576
2016-04-26T08:08:01.467Z,3572
2016-04-26T08:08:44.420Z,3852
2016-04-26T08:09:27.392Z,5328
2016-04-26T08:10:10.364Z,6892
2016-04-26T08:10:53.319Z,9120
2016-04-26T08:11:36.288Z,9932
2016-04-26T08:12:19.244Z,9524
2016-04-26T08:13:02.434Z,9900
2016-04-26T08:13:45.387Z,11816
2016-04-26T08:14:28.358Z,15088
2016-04-26T08:15:11.345Z,29024
2016-04-26T08:15:54.285Z,19584
2016-04-26T08:16:37.238Z,8388
2016-04-26T08:17:20.210Z,8744
2016-04-26T08:18:03.541Z,10452
2016-04-26T08:18:47.572Z,11912
2016-04-26T08:19:29.966Z,10384
2016-04-26T08:20:12.938Z,7608
2016-04-26T08:20:55.893Z,6732
2016-04-26T08:21:38.846Z,7580
2016-04-26T08:22:21.833Z,8208
2016-04-26T08:23:04.789Z,7472
2016-04-26T08:23:47.727Z,7388
2016-04-26T08:24:30.541Z,7472
2016-04-26T08:25:13.497Z,7300
2016-04-26T08:25:56.453Z,9776
2016-04-26T08:26:39.421Z,11920
2016-04-26T08:27:22.393Z,16240
2016-04-26T08:28:05.365Z,11128
2016-04-26T08:28:48.340Z,20512
2016-04-26T08:29:31.311Z,9888
2016-04-26T08:30:14.270Z,11120
2016-04-26T08:30:57.267Z,34592
2016-04-26T08:31:40.221Z,32736
2016-04-26T08:32:23.234Z,19488
2016-04-26T08:33:06.591Z,39584
2016-04-26T08:33:49.341Z,46080
2016-04-26T08:34:32.495Z,18656
2016-04-26T08:35:15.398Z,11116
2016-04-26T08:35:58.461Z,56832
2016-04-26T08:36:41.399Z,66944
2016-04-26T08:37:24.104Z,20736
2016-04-26T08:38:07.091Z,77024
2016-04-26T08:38:50.044Z,78816
2016-04-26T08:39:33.015Z,70048
2016-04-26T08:40:15.985Z,11956
2016-04-26T08:40:58.962Z,11296
2016-04-26T08:41:41.931Z,23968
2016-04-26T08:42:24.908Z,15208
2016-04-26T08:43:07.899Z,86944
2016-04-26T08:43:50.837Z,87712
2016-04-26T08:44:33.814Z,63648
2016-04-26T08:45:18.885Z,15292
2016-04-26T08:46:01.858Z,17728
2016-04-26T08:46:44.826Z,17344
2016-04-26T08:47:27.768Z,91168
2016-04-26T08:48:10.992Z,13564
2016-04-26T08:48:55.840Z,18624
2016-04-26T08:49:38.825Z,16644
2016-04-26T08:50:21.783Z,70976
2016-04-26T08:51:04.755Z,26304
2016-04-26T08:51:47.692Z,95808
2016-04-26T08:52:35.726Z,86240
2016-04-26T08:53:18.699Z,12272
2016-04-26T08:54:01.672Z,10580
2016-04-26T08:54:44.641Z,27584
2016-04-26T08:55:27.597Z,12676
2016-04-26T08:56:10.537Z,102016
2016-04-26T08:56:53.522Z,20992
2016-04-26T08:57:38.681Z,102144
2016-04-26T08:58:21.638Z,14848
2016-04-26T08:59:04.610Z,94048
2016-04-26T08:59:47.625Z,100576
2016-04-26T09:00:30.581Z,71744
2016-04-26T09:01:13.552Z,56160
2016-04-26T09:01:56.523Z,38176
2016-04-26T09:02:39.492Z,60608
2016-04-26T09:03:22.324Z,11988
2016-04-26T09:04:04.342Z,15956
2016-04-26T09:04:47.138Z,107456
2016-04-26T09:05:30.109Z,12608
2016-04-26T09:06:13.066Z,10060
2016-04-26T09:06:56.066Z,10276
2016-04-26T09:07:38.068Z,11552
2016-04-26T09:08:21.040Z,13704
2016-04-26T09:09:03.995Z,16300
2016-04-26T09:09:46.901Z,15548
2016-04-26T09:10:29.873Z,18432
2016-04-26T09:11:12.829Z,17920
2016-04-26T09:11:55.767Z,31552
2016-04-26T09:12:38.739Z,21568
2016-04-26T09:13:21.709Z,25984
2016-04-26T09:14:04.681Z,24896
2016-04-26T09:14:47.634Z,26784
2016-04-26T09:15:30.574Z,23552
2016-04-26T09:16:13.545Z,69920
2016-04-26T09:16:56.514Z,52224
2016-04-26T09:17:39.486Z,61216
2016-04-26T09:18:22.317Z,24608
2016-04-26T09:19:06.210Z,19904
2016-04-26T09:19:49.147Z,41632
2016-04-26T09:20:32.119Z,24928
2016-04-26T09:21:15.075Z,32288
2016-04-26T09:21:58.453Z,28480
2016-04-26T09:22:41.422Z,21056
2016-04-26T09:23:24.361Z,66720
2016-04-26T09:24:07.332Z,68096
2016-04-26T09:24:50.301Z,74592
2016-04-26T09:25:33.274Z,23296
2016-04-26T09:26:16.244Z,80064
2016-04-26T09:26:59.216Z,22208
2016-04-26T09:27:42.185Z,62816
2016-04-26T09:28:25.172Z,51104
2016-04-26T09:29:08.143Z,15232
2016-04-26T09:29:51.112Z,15244
2016-04-26T09:30:34.099Z,22080
2016-04-26T09:31:17.054Z,22592
2016-04-26T09:32:00.042Z,81664
2016-04-26T09:32:42.979Z,40736
2016-04-26T09:33:26.357Z,23936
2016-04-26T09:34:09.141Z,97504
2016-04-26T09:34:52.094Z,48256
2016-04-26T09:35:35.050Z,42144
2016-04-26T09:36:18.038Z,91264
2016-04-26T09:37:00.993Z,45408
2016-04-26T09:37:43.962Z,26784
2016-04-26T09:38:26.933Z,17856
2016-04-26T09:39:10.701Z,14064
2016-04-26T09:39:53.670Z,13516
2016-04-26T09:40:36.673Z,14760
2016-04-26T09:41:19.629Z,16404
2016-04-26T09:42:02.584Z,11356
2016-04-26T09:42:45.537Z,8212
2016-04-26T09:43:28.509Z,6532
2016-04-26T09:44:15.012Z,6068
2016-04-26T09:44:57.983Z,6648
2016-04-26T09:45:40.967Z,7424
2016-04-26T09:46:23.158Z,8192
2016-04-26T09:47:06.144Z,8412
2016-04-26T09:47:49.878Z,8896
2016-04-26T09:48:33.444Z,9532
2016-04-26T09:49:19.884Z,8756
2016-04-26T09:50:02.856Z,7788
2016-04-26T09:50:45.809Z,8848
2016-04-26T09:51:28.781Z,9868
2016-04-26T09:52:11.721Z,8392
2016-04-26T09:52:53.892Z,6840
2016-04-26T09:53:36.864Z,6972
2016-04-26T09:54:21.820Z,6320
2016-04-26T09:55:04.808Z,6184